createdAt,value
2019-06-20T00:00:36.262Z,7.30
2019-06-20T00:03:05.861Z,14.33
2019-06-20T00:05:35.142Z,10.15
2019-06-20T00:08:04.513Z,18.60
2019-06-20T00:10:33.833Z,10.90
2019-06-20T00:13:03.204Z,11.00
2019-06-20T00:15:32.655Z,10.15
2019-06-20T00:18:01.963Z,11.78
2019-06-20T00:20:31.335Z,11.00
2019-06-20T00:23:00.868Z,15.48
2019-06-20T00:25:30.284Z,10.23
2019-06-20T00:27:59.709Z,14.70
2019-06-20T00:30:29.150Z,10.18
2019-06-20T00:32:58.695Z,14.13
2019-06-20T00:35:28.083Z,10.03
2019-06-20T00:37:57.408Z,15.83
2019-06-20T00:40:26.865Z,19.05
2019-06-20T00:42:56.315Z,14.18
2019-06-20T00:45:25.686Z,14.20
2019-06-20T00:47:55.064Z,14.95
2019-06-20T00:50:24.439Z,17.52
2019-06-20T00:52:53.888Z,18.62
2019-06-20T00:55:23.279Z,14.43
2019-06-20T00:57:52.687Z,14.65
2019-06-20T01:00:22.497Z,18.95
2019-06-20T01:02:51.993Z,20.27
2019-06-20T01:05:21.318Z,14.23
2019-06-20T01:07:50.839Z,12.15
2019-06-20T01:10:20.318Z,21.68
2019-06-20T01:12:49.725Z,14.15
2019-06-20T01:15:19.146Z,20.45
2019-06-20T01:17:48.519Z,19.60
2019-06-20T01:20:18.140Z,22.27
2019-06-20T01:22:47.445Z,23.45
2019-06-20T01:25:18.305Z,27.27
2019-06-20T01:27:47.599Z,23.30
2019-06-20T01:30:17.150Z,24.70
2019-06-20T01:32:46.565Z,26.33
2019-06-20T01:35:15.936Z,23.80
2019-06-20T01:37:45.370Z,31.23
2019-06-20T01:40:14.666Z,17.35
2019-06-20T01:42:44.002Z,29.32
2019-06-20T01:45:13.663Z,29.45
2019-06-20T01:47:43.003Z,27.60
2019-06-20T01:50:13.090Z,35.48
2019-06-20T01:52:42.499Z,30.52
2019-06-20T01:55:11.889Z,27.22
2019-06-20T01:57:43.144Z,30.27
2019-06-20T02:00:14.593Z,27.55
2019-06-20T02:02:43.960Z,23.62
2019-06-20T02:05:13.702Z,33.70
2019-06-20T02:07:43.133Z,33.30
2019-06-20T02:10:12.710Z,26.93
2019-06-20T02:12:42.058Z,29.55
2019-06-20T02:15:11.761Z,34.10
2019-06-20T02:17:41.164Z,24.60
2019-06-20T02:20:12.711Z,31.50
2019-06-20T02:22:42.132Z,28.20
2019-06-20T02:25:11.934Z,31.17
2019-06-20T02:27:41.212Z,24.72
2019-06-20T02:30:11.076Z,28.77
2019-06-20T02:32:40.665Z,28.95
2019-06-20T02:35:10.256Z,29.23
2019-06-20T02:37:39.844Z,30.68
2019-06-20T02:40:09.199Z,35.38
2019-06-20T02:42:38.659Z,33.45
2019-06-20T02:45:08.104Z,31.10
2019-06-20T02:47:37.481Z,34.53
2019-06-20T02:50:07.230Z,33.53
2019-06-20T02:52:36.803Z,41.33
2019-06-20T02:55:06.379Z,27.05
2019-06-20T02:57:35.783Z,33.98
2019-06-20T03:00:06.309Z,33.13
2019-06-20T03:02:35.634Z,34.95
2019-06-20T03:05:05.541Z,42.05
2019-06-20T03:07:34.919Z,34.20
2019-06-20T03:10:05.890Z,33.78
2019-06-20T03:12:35.276Z,35.52
2019-06-20T03:15:05.640Z,34.15
2019-06-20T03:17:34.945Z,41.98
2019-06-20T03:20:04.745Z,28.05
2019-06-20T03:22:34.279Z,40.83
2019-06-20T03:25:03.917Z,41.40
2019-06-20T03:27:33.339Z,37.00
2019-06-20T03:30:02.970Z,39.95
2019-06-20T03:32:32.520Z,40.35
2019-06-20T03:35:01.731Z,38.33
2019-06-20T03:37:31.269Z,42.25
2019-06-20T03:40:00.736Z,44.75
2019-06-20T03:42:30.013Z,30.92
2019-06-20T03:45:02.544Z,40.12
2019-06-20T03:47:30.381Z,39.40
2019-06-20T03:49:59.790Z,40.03
2019-06-20T03:52:29.168Z,44.33
2019-06-20T03:54:58.506Z,41.48
2019-06-20T03:57:27.814Z,40.35
2019-06-20T03:59:58.512Z,34.00
2019-06-20T04:02:27.906Z,42.38
2019-06-20T04:04:57.555Z,37.85
2019-06-20T04:07:27.049Z,40.30
2019-06-20T04:09:56.520Z,38.67
2019-06-20T04:12:25.986Z,43.33
2019-06-20T04:14:55.359Z,38.90
2019-06-20T04:17:24.949Z,32.73
2019-06-20T04:19:54.207Z,38.00
2019-06-20T04:22:23.558Z,42.50
2019-06-20T04:24:52.958Z,45.35
2019-06-20T04:27:23.120Z,42.48
2019-06-20T04:29:52.525Z,45.67
2019-06-20T04:32:21.979Z,41.50
2019-06-20T04:34:51.516Z,44.42
2019-06-20T04:37:20.864Z,44.63
2019-06-20T04:39:50.188Z,44.40
2019-06-20T04:42:19.884Z,31.57
2019-06-20T04:44:50.446Z,38.92
2019-06-20T04:47:19.888Z,42.40
2019-06-20T04:49:50.195Z,38.98
2019-06-20T04:52:19.738Z,42.17
2019-06-20T04:54:49.168Z,35.45
2019-06-20T04:57:18.672Z,38.48
2019-06-20T04:59:50.392Z,35.40
2019-06-20T05:02:34.218Z,44.65
2019-06-20T05:05:05.507Z,43.63
2019-06-20T05:07:34.940Z,42.98
2019-06-20T05:10:04.559Z,43.00
2019-06-20T05:12:33.859Z,39.42
2019-06-20T05:15:03.191Z,37.80
2019-06-20T05:17:32.952Z,32.50
2019-06-20T05:20:02.264Z,43.87
2019-06-20T05:22:31.571Z,40.90
2019-06-20T05:25:01.272Z,31.68
2019-06-20T05:27:30.743Z,36.98
2019-06-20T05:30:00.136Z,25.08
2019-06-20T05:32:29.487Z,40.43
2019-06-20T05:35:02.795Z,36.48
2019-06-20T05:37:30.268Z,36.68
2019-06-20T05:39:59.699Z,35.33
2019-06-20T05:42:29.478Z,28.98
2019-06-20T05:44:59.026Z,33.70
2019-06-20T05:47:28.791Z,35.38
2019-06-20T05:49:58.269Z,29.05
2019-06-20T05:52:27.733Z,29.85
2019-06-20T05:54:57.750Z,25.10
2019-06-20T05:57:27.195Z,28.62
2019-06-20T05:59:56.621Z,23.18
2019-06-20T06:02:26.225Z,27.17
2019-06-20T06:04:55.706Z,33.85
2019-06-20T06:07:25.157Z,31.82
2019-06-20T06:09:54.613Z,32.80
2019-06-20T06:12:23.923Z,30.92
2019-06-20T06:14:53.322Z,30.88
2019-06-20T06:17:22.715Z,28.00
2019-06-20T06:19:52.126Z,29.18
2019-06-20T06:22:21.723Z,24.18
2019-06-20T06:24:51.226Z,26.42
2019-06-20T06:27:20.839Z,22.73
2019-06-20T06:29:50.153Z,26.68
2019-06-20T06:32:20.269Z,26.02
2019-06-20T06:34:49.722Z,18.57
2019-06-20T06:37:19.112Z,19.15
2019-06-20T06:39:48.792Z,19.35
2019-06-20T06:42:18.182Z,19.98
2019-06-20T06:44:47.681Z,19.77
2019-06-20T06:47:17.187Z,21.93
2019-06-20T06:49:46.697Z,21.15
2019-06-20T06:52:16.055Z,26.33
2019-06-20T06:54:45.479Z,20.15
2019-06-20T06:57:15.763Z,22.27
2019-06-20T06:59:45.078Z,19.12
2019-06-20T07:02:14.647Z,19.50
2019-06-20T07:04:44.011Z,25.60
2019-06-20T07:07:13.464Z,24.45
2019-06-20T07:09:43.024Z,22.02
2019-06-20T07:12:12.662Z,22.07
2019-06-20T07:14:44.688Z,21.55
2019-06-20T07:17:13.992Z,22.13
2019-06-20T07:19:43.274Z,20.57
2019-06-20T07:22:12.641Z,24.30
2019-06-20T07:24:42.114Z,20.32
2019-06-20T07:27:12.600Z,27.02
2019-06-20T07:29:42.109Z,29.57
2019-06-20T07:32:11.660Z,24.12
2019-06-20T07:34:41.049Z,15.35
2019-06-20T07:37:10.467Z,23.12
2019-06-20T07:39:39.889Z,29.35
2019-06-20T07:42:09.343Z,24.05
2019-06-20T07:44:38.739Z,24.95
2019-06-20T07:47:17.219Z,23.87
2019-06-20T07:49:39.313Z,25.02
2019-06-20T07:52:08.661Z,18.40
2019-06-20T07:54:38.192Z,20.88
2019-06-20T07:57:09.603Z,21.15
2019-06-20T07:59:38.924Z,20.08
2019-06-20T08:02:08.743Z,27.25
2019-06-20T08:04:38.220Z,16.90
2019-06-20T08:07:07.739Z,20.60
2019-06-20T08:09:44.747Z,18.02
2019-06-20T08:12:09.657Z,24.10
2019-06-20T08:14:39.128Z,18.87
2019-06-20T08:17:09.558Z,19.65
2019-06-20T08:19:39.038Z,14.28
2019-06-20T08:22:08.991Z,15.18
2019-06-20T08:24:38.519Z,17.37
2019-06-20T08:27:07.944Z,17.70
2019-06-20T08:29:37.466Z,15.72
2019-06-20T08:32:06.762Z,10.83
2019-06-20T08:34:36.236Z,11.08
2019-06-20T08:37:06.408Z,16.70
2019-06-20T08:39:37.722Z,12.50
2019-06-20T08:42:07.182Z,13.55
2019-06-20T08:44:36.521Z,8.93
2019-06-20T08:47:06.148Z,10.72
2019-06-20T08:49:35.430Z,8.53
2019-06-20T08:52:05.585Z,10.20
2019-06-20T08:54:35.568Z,10.72
2019-06-20T08:57:05.837Z,9.45
2019-06-20T08:59:35.424Z,7.92
2019-06-20T09:04:34.770Z,12.93
2019-06-20T09:09:33.559Z,12.28
2019-06-20T09:12:02.867Z,11.53
2019-06-20T09:14:32.295Z,9.73
2019-06-20T09:17:02.932Z,8.98
2019-06-20T09:19:32.726Z,11.80
2019-06-20T09:22:02.238Z,10.50
2019-06-20T09:24:31.647Z,13.72
2019-06-20T09:27:01.061Z,15.05
2019-06-20T09:29:41.324Z,8.38
2019-06-20T09:32:01.630Z,11.97
2019-06-20T09:34:31.048Z,8.00
2019-06-20T09:37:00.429Z,7.15
2019-06-20T09:39:29.750Z,4.20
2019-06-20T09:41:59.264Z,6.22
2019-06-20T09:44:28.720Z,5.75
2019-06-20T09:46:59.328Z,6.75
2019-06-20T09:49:28.704Z,4.80
2019-06-20T09:51:58.701Z,3.17
2019-06-20T09:54:28.333Z,4.90
2019-06-20T09:56:58.403Z,7.53
2019-06-20T09:59:28.152Z,4.20
2019-06-20T10:01:58.746Z,5.25
2019-06-20T10:04:28.372Z,7.22
2019-06-20T10:06:57.796Z,3.25
2019-06-20T10:09:27.199Z,5.08
2019-06-20T10:11:56.598Z,3.80
2019-06-20T10:14:26.329Z,3.72
2019-06-20T10:16:56.897Z,4.42
2019-06-20T10:19:29.052Z,5.12
2019-06-20T10:21:58.453Z,4.83
2019-06-20T10:24:27.863Z,4.92
2019-06-20T10:26:58.022Z,3.75
2019-06-20T10:29:27.440Z,5.62
2019-06-20T10:31:57.262Z,4.95
2019-06-20T10:34:26.770Z,5.22
2019-06-20T10:36:57.106Z,3.25
2019-06-20T10:39:28.244Z,4.97
2019-06-20T10:41:57.671Z,3.30
2019-06-20T10:44:27.075Z,4.53
2019-06-20T10:46:57.029Z,5.35
2019-06-20T10:49:26.448Z,3.85
2019-06-20T10:51:55.922Z,3.87
2019-06-20T10:54:25.451Z,3.65
2019-06-20T10:56:54.800Z,3.80
2019-06-20T10:59:24.211Z,3.62
2019-06-20T11:01:54.844Z,5.22
2019-06-20T11:04:24.160Z,5.15
2019-06-20T11:06:53.639Z,5.50
2019-06-20T11:09:23.043Z,3.08
2019-06-20T11:11:52.707Z,5.15
2019-06-20T11:14:22.143Z,4.53
2019-06-20T11:16:51.614Z,5.42
2019-06-20T11:19:20.986Z,6.30
2019-06-20T11:21:50.365Z,5.08
2019-06-20T11:24:20.120Z,6.03
2019-06-20T11:26:49.460Z,5.10
2019-06-20T11:29:18.857Z,5.80
2019-06-20T11:31:49.593Z,6.72
2019-06-20T11:34:19.378Z,4.12
2019-06-20T11:36:49.154Z,4.20
2019-06-20T11:39:18.634Z,2.87
2019-06-20T11:41:48.542Z,7.42
2019-06-20T11:44:18.079Z,5.58
2019-06-20T11:46:47.437Z,5.67
2019-06-20T11:49:17.053Z,6.28
2019-06-20T11:51:46.347Z,4.03
2019-06-20T11:54:15.779Z,2.95
2019-06-20T11:56:45.332Z,6.42
2019-06-20T11:59:14.702Z,5.45
2019-06-20T12:01:44.880Z,6.10
2019-06-20T12:04:17.466Z,5.90
2019-06-20T12:06:47.237Z,8.05
2019-06-20T12:09:16.854Z,5.00
2019-06-20T12:11:46.775Z,3.75
2019-06-20T12:14:16.330Z,5.28
2019-06-20T12:16:46.450Z,3.58
2019-06-20T12:19:16.162Z,6.42
2019-06-20T12:21:46.824Z,4.78
2019-06-20T12:24:16.372Z,8.15
2019-06-20T12:26:46.876Z,2.67
2019-06-20T12:29:16.444Z,4.35
2019-06-20T12:31:45.927Z,4.75
2019-06-20T12:34:15.289Z,3.55
2019-06-20T12:36:46.505Z,4.75
2019-06-20T12:39:16.334Z,7.87
2019-06-20T12:41:45.873Z,3.08
2019-06-20T12:44:15.274Z,4.12
2019-06-20T12:46:44.814Z,5.00
2019-06-20T12:49:14.441Z,2.65
2019-06-20T12:51:44.787Z,2.50
2019-06-20T12:54:14.389Z,2.72
2019-06-20T12:56:44.036Z,4.35
2019-06-20T12:59:14.598Z,3.25
2019-06-20T13:01:47.343Z,6.28
2019-06-20T13:04:15.030Z,4.83
2019-06-20T13:06:44.545Z,4.72
2019-06-20T13:09:13.917Z,3.55
2019-06-20T13:11:43.282Z,2.87
2019-06-20T13:14:12.634Z,4.62
2019-06-20T13:16:42.813Z,3.42
2019-06-20T13:19:12.295Z,2.90
2019-06-20T13:21:42.075Z,3.40
2019-06-20T13:24:11.622Z,4.20
2019-06-20T13:26:42.409Z,3.22
2019-06-20T13:29:11.841Z,3.17
2019-06-20T13:31:56.494Z,4.78
2019-06-20T13:34:12.267Z,3.65
2019-06-20T13:36:42.817Z,5.25
2019-06-20T13:39:12.619Z,5.17
2019-06-20T13:41:43.099Z,5.92
2019-06-20T13:44:14.400Z,4.40
2019-06-20T13:46:44.586Z,10.00
2019-06-20T13:49:14.071Z,8.78
2019-06-20T13:51:43.541Z,8.48
2019-06-20T13:54:13.111Z,5.55
2019-06-20T13:56:45.365Z,6.20
2019-06-20T13:59:15.405Z,6.92
2019-06-20T14:01:46.102Z,8.53
2019-06-20T14:04:15.887Z,5.50
2019-06-20T14:06:45.504Z,5.85
2019-06-20T14:09:15.346Z,5.40
2019-06-20T14:11:45.373Z,5.17
2019-06-20T14:14:15.029Z,6.45
2019-06-20T14:16:44.934Z,5.17
2019-06-20T14:19:14.380Z,5.55
2019-06-20T14:21:43.918Z,7.10
2019-06-20T14:24:13.568Z,8.90
2019-06-20T14:26:44.779Z,8.00
2019-06-20T14:29:14.152Z,6.83
2019-06-20T14:31:44.378Z,14.03
2019-06-20T14:34:15.929Z,10.05
2019-06-20T14:36:46.665Z,6.85
2019-06-20T14:39:16.406Z,8.43
2019-06-20T14:41:46.439Z,8.58
2019-06-20T14:44:15.775Z,11.35
2019-06-20T14:46:45.297Z,11.53
2019-06-20T14:49:14.617Z,6.37
2019-06-20T14:51:45.389Z,10.13
2019-06-20T14:54:19.735Z,5.78
2019-06-20T14:56:49.783Z,7.03
2019-06-20T14:59:19.431Z,9.35
2019-06-20T15:01:48.719Z,7.85
2019-06-20T15:04:18.029Z,9.65
2019-06-20T15:06:48.419Z,7.15
2019-06-20T15:09:17.918Z,9.13
2019-06-20T15:11:48.223Z,6.80
2019-06-20T15:14:19.064Z,5.78
2019-06-20T15:16:49.473Z,8.18
2019-06-20T15:19:19.241Z,8.80
2019-06-20T15:21:50.177Z,6.97
2019-06-20T15:24:19.598Z,10.70
2019-06-20T15:26:49.464Z,7.05
2019-06-20T15:29:21.315Z,7.72
2019-06-20T15:31:50.704Z,8.03
2019-06-20T15:34:21.866Z,5.72
2019-06-20T15:36:53.307Z,7.00
2019-06-20T15:39:23.053Z,8.90
2019-06-20T15:41:54.047Z,6.25
2019-06-20T15:44:23.622Z,5.22
2019-06-20T15:46:54.807Z,3.62
2019-06-20T15:49:24.209Z,6.60
2019-06-20T15:51:53.550Z,4.12
2019-06-20T15:54:24.561Z,5.83
2019-06-20T15:56:53.961Z,4.83
2019-06-20T15:59:23.742Z,6.85
2019-06-20T16:01:53.277Z,6.92
2019-06-20T16:04:22.895Z,8.60
2019-06-20T16:06:52.445Z,5.50
2019-06-20T16:09:21.850Z,6.15
2019-06-20T16:11:51.728Z,7.35
2019-06-20T16:14:21.089Z,8.05
2019-06-20T16:16:50.813Z,6.97
2019-06-20T16:19:20.310Z,8.35
2019-06-20T16:21:49.788Z,5.75
2019-06-20T16:24:19.211Z,5.40
2019-06-20T16:26:48.657Z,9.30
2019-06-20T16:29:18.334Z,4.97
2019-06-20T16:31:47.850Z,7.40
2019-06-20T16:34:17.242Z,7.47
2019-06-20T16:36:46.717Z,6.08
2019-06-20T16:39:16.113Z,6.67
2019-06-20T16:41:45.626Z,4.35
2019-06-20T16:44:15.018Z,4.53
2019-06-20T16:46:44.412Z,3.92
2019-06-20T16:49:13.788Z,6.20
2019-06-20T16:51:43.324Z,7.75
2019-06-20T16:54:13.909Z,3.72
2019-06-20T16:56:43.364Z,5.85
2019-06-20T16:59:14.327Z,4.70
2019-06-20T17:01:43.973Z,3.67
2019-06-20T17:04:13.519Z,7.08
2019-06-20T17:06:42.845Z,8.43
2019-06-20T17:09:15.201Z,7.95
2019-06-20T17:11:45.039Z,5.92
2019-06-20T17:14:16.471Z,4.35
2019-06-20T17:16:48.227Z,5.05
2019-06-20T17:19:22.986Z,4.67
2019-06-20T17:21:52.470Z,3.83
2019-06-20T17:24:21.774Z,4.25
2019-06-20T17:26:51.221Z,8.75
2019-06-20T17:29:20.625Z,3.60
2019-06-20T17:31:50.035Z,6.42
2019-06-20T17:34:19.777Z,2.17
2019-06-20T17:36:49.107Z,3.25
2019-06-20T17:39:18.840Z,5.35
2019-06-20T17:41:55.137Z,3.75
2019-06-20T17:44:19.356Z,4.95
2019-06-20T17:46:48.750Z,6.30
2019-06-20T17:49:18.411Z,3.20
2019-06-20T17:51:47.904Z,5.00
2019-06-20T17:54:17.635Z,5.60
2019-06-20T17:56:47.075Z,7.03
2019-06-20T17:59:16.723Z,4.03
2019-06-20T18:01:46.151Z,5.85
2019-06-20T18:04:15.885Z,6.87
2019-06-20T18:06:46.528Z,2.55
2019-06-20T18:09:15.827Z,4.28
2019-06-20T18:11:48.026Z,3.42
2019-06-20T18:14:17.980Z,7.40
2019-06-20T18:16:47.392Z,4.05
2019-06-20T18:19:17.119Z,3.27
2019-06-20T18:21:46.685Z,3.42
2019-06-20T18:24:16.239Z,3.75
2019-06-20T18:26:45.634Z,4.03
2019-06-20T18:29:15.376Z,2.50
2019-06-20T18:31:44.900Z,5.78
2019-06-20T18:34:29.132Z,2.25
2019-06-20T18:36:45.473Z,4.22
2019-06-20T18:39:14.912Z,2.77
2019-06-20T18:41:47.334Z,2.22
2019-06-20T18:44:15.347Z,3.45
2019-06-20T18:46:44.684Z,5.03
2019-06-20T18:49:14.064Z,3.15
2019-06-20T18:51:43.701Z,3.08
2019-06-20T18:54:13.223Z,2.58
2019-06-20T18:56:42.547Z,2.20
2019-06-20T18:59:12.480Z,3.98
2019-06-20T19:01:41.817Z,5.83
2019-06-20T19:04:11.509Z,3.58
2019-06-20T19:06:40.983Z,4.22
2019-06-20T19:09:10.606Z,4.00
2019-06-20T19:11:40.432Z,6.15
2019-06-20T19:14:12.638Z,1.87
2019-06-20T19:16:41.252Z,7.70
2019-06-20T19:19:10.694Z,1.55
2019-06-20T19:21:40.020Z,7.03
2019-06-20T19:24:09.333Z,2.77
2019-06-20T19:26:38.710Z,3.37
2019-06-20T19:29:08.078Z,2.98
2019-06-20T19:31:37.328Z,3.92
2019-06-20T19:34:06.781Z,3.50
2019-06-20T19:36:36.039Z,4.22
2019-06-20T19:39:07.119Z,3.52
2019-06-20T19:41:36.461Z,3.20
2019-06-20T19:44:05.823Z,4.62
2019-06-20T19:46:35.274Z,4.00
2019-06-20T19:49:04.664Z,3.85
2019-06-20T19:51:34.203Z,2.05
2019-06-20T19:54:03.921Z,5.45
2019-06-20T19:56:33.485Z,7.15
2019-06-20T19:59:02.971Z,2.62
2019-06-20T20:01:32.441Z,3.70
2019-06-20T20:04:01.844Z,3.25
2019-06-20T20:06:31.241Z,6.85
2019-06-20T20:09:00.679Z,3.22
2019-06-20T20:11:30.128Z,3.15
2019-06-20T20:13:59.774Z,3.67
2019-06-20T20:16:29.657Z,2.52
2019-06-20T20:18:59.024Z,4.25
2019-06-20T20:21:28.767Z,8.80
2019-06-20T20:23:58.382Z,3.42
2019-06-20T20:26:27.782Z,4.78
2019-06-20T20:28:57.235Z,2.80
2019-06-20T20:31:26.649Z,5.42
2019-06-20T20:33:56.186Z,4.10
2019-06-20T20:36:25.683Z,2.10
2019-06-20T20:38:55.127Z,3.60
2019-06-20T20:41:24.735Z,2.83
2019-06-20T20:43:54.079Z,3.30
2019-06-20T20:46:23.468Z,4.03
2019-06-20T20:48:52.885Z,4.28
2019-06-20T20:51:22.293Z,4.60
2019-06-20T20:53:51.745Z,4.17
2019-06-20T20:56:21.136Z,3.15
2019-06-20T20:58:50.410Z,6.22
2019-06-20T21:01:30.704Z,2.83
2019-06-20T21:04:00.604Z,3.45
2019-06-20T21:06:30.279Z,4.58
2019-06-20T21:08:59.728Z,5.42
2019-06-20T21:11:29.215Z,5.87
2019-06-20T21:13:58.541Z,4.45
2019-06-20T21:16:27.916Z,5.17
2019-06-20T21:18:57.262Z,4.87
2019-06-20T21:21:26.634Z,3.75
2019-06-20T21:23:55.961Z,2.08
2019-06-20T21:26:25.635Z,3.65
2019-06-20T21:28:55.080Z,2.65
2019-06-20T21:31:24.688Z,5.80
2019-06-20T21:33:54.593Z,5.15
2019-06-20T21:36:24.231Z,4.05
2019-06-20T21:38:54.473Z,6.97
2019-06-20T21:41:24.032Z,3.70
2019-06-20T21:43:53.450Z,3.98
2019-06-20T21:46:22.907Z,6.67
2019-06-20T21:48:52.336Z,2.87
2019-06-20T21:51:22.103Z,6.00
2019-06-20T21:53:51.495Z,7.58
2019-06-20T21:56:20.899Z,4.15
2019-06-20T21:58:50.485Z,4.67
2019-06-20T22:01:20.706Z,5.37
2019-06-20T22:03:50.158Z,3.60
2019-06-20T22:06:23.916Z,3.52
2019-06-20T22:08:50.544Z,3.52
2019-06-20T22:11:20.043Z,4.60
2019-06-20T22:13:49.425Z,6.85
2019-06-20T22:16:18.871Z,4.17
2019-06-20T22:18:48.275Z,4.58
2019-06-20T22:21:17.653Z,5.90
2019-06-20T22:23:47.092Z,5.00
2019-06-20T22:26:16.679Z,4.70
2019-06-20T22:28:46.059Z,6.65
2019-06-20T22:31:15.477Z,4.83
2019-06-20T22:33:45.028Z,4.65
2019-06-20T22:36:14.443Z,3.67
2019-06-20T22:38:43.849Z,4.83
2019-06-20T22:41:13.319Z,9.13
2019-06-20T22:43:42.708Z,3.47
2019-06-20T22:46:12.122Z,5.97
2019-06-20T22:48:41.600Z,4.28
2019-06-20T22:51:13.738Z,4.00
2019-06-20T22:53:42.141Z,2.20
2019-06-20T22:56:11.541Z,4.85
2019-06-20T22:58:42.433Z,3.70
2019-06-20T23:01:11.739Z,4.72
2019-06-20T23:03:41.145Z,6.53
2019-06-20T23:06:10.575Z,3.33
2019-06-20T23:08:40.017Z,5.35
2019-06-20T23:11:11.825Z,5.70
2019-06-20T23:13:41.202Z,5.87
2019-06-20T23:16:10.520Z,7.08
2019-06-20T23:18:40.038Z,6.05
2019-06-20T23:21:09.469Z,7.47
2019-06-20T23:23:38.748Z,7.95
2019-06-20T23:26:09.711Z,4.17
2019-06-20T23:28:39.194Z,3.52
2019-06-20T23:31:08.754Z,5.08
2019-06-20T23:33:37.984Z,5.55
2019-06-20T23:36:07.383Z,6.85
2019-06-20T23:38:36.809Z,4.65
2019-06-20T23:41:06.104Z,2.83
2019-06-20T23:43:35.512Z,3.22
2019-06-20T23:46:04.917Z,2.92
2019-06-20T23:48:34.231Z,8.03
2019-06-20T23:51:03.789Z,4.25
2019-06-20T23:53:33.244Z,2.95
2019-06-20T23:56:03.033Z,3.27
2019-06-20T23:58:32.373Z,4.83
